Airfield :
LOGIN :

Register | Disclaimer

   EN    FR    IT 

 










Legend :    VFR   Marginal VFR   IFR   Intensive IFR   Very Intensive IFR
Visi :
Ceiling :
>= 8 km
>= 3000ft
5 to 8 km
1000 to 3000 ft
1500m to 5 km
500 to 1000 ft
800 to 1500m
200 to 500 ft
< 800m
< 200 ft
Symbols :   Thunderstorms  Fog  Heavy snow  Heavy precipitations  Wind > 20 kt
SIGMETs :     Misc.  Thunderstorms  Icing  Turbulence  Mountain Waves  Volcanic Ashes







- Airport Elevation : 465 ft
- IATA code : LEJ


EDDP - Leipzig Halle

CURRENT METAR :
  • 180750Z 02005KT 330V060 9999 FEW023 OVC038 20/14 Q1021 NOSIG

EXPIRED METARs :
  • 180720Z 01005KT 350V050 9999 FEW020 BKN037 19/14 Q1021 NOSIG
  • 180650Z 36005KT 330V030 9999 BKN036 19/15 Q1021 NOSIG
  • 180620Z 35005KT 320V020 9999 BKN035 19/15 Q1021 NOSIG
  • 180550Z 35007KT 9999 BKN033 18/14 Q1021 NOSIG
  • 180520Z 34007KT 9999 BKN032 18/14 Q1021 NOSIG

TAF TAF EDDP
Valid from the 18 at 06:00 until the 19 at 06:00 UTC


180500Z 1806/1906 33005KT 9999 SCT040
TEMPO 1817/1823 03004KT
No reported NOTAMs for that airfield.



MET'MAP, your aeronautical weather chart ! - Copyright ORBIFLY December 2007 - Disclaimer

ORBIFLY MET'MAP TEAM :

Programming & Development : Alexandra Zaïnal
Concept & Development : Baudouin d'Aumeries
Co-Development & Prog : Marc-Olivier Méhu
Technical & hardware support : Manuel Goepfert

Contact : metmap@orbifly.com




SOURCES & CREDITS :

   NOAA